sensor_id;sensor_type;location;lat;lon;timestamp;pressure;altitude;pressure_sealevel;temperature;humidity
8160;BME280;27404;52.398;9.646;2022-07-29T00:01:29;101149.94;;;15.47;62.24
8160;BME280;27404;52.398;9.646;2022-07-29T00:03:55;101145.75;;;15.44;62.32
8160;BME280;27404;52.398;9.646;2022-07-29T00:06:20;101142.31;;;15.54;61.69
8160;BME280;27404;52.398;9.646;2022-07-29T00:08:46;101141.75;;;15.52;62.10
8160;BME280;27404;52.398;9.646;2022-07-29T00:11:11;101142.31;;;15.54;60.84
8160;BME280;27404;52.398;9.646;2022-07-29T00:13:37;101141.75;;;15.52;61.76
8160;BME280;27404;52.398;9.646;2022-07-29T00:16:03;101134.03;;;15.54;61.84
8160;BME280;27404;52.398;9.646;2022-07-29T00:18:28;101136.53;;;15.55;61.19
8160;BME280;27404;52.398;9.646;2022-07-29T00:20:54;101136.00;;;15.59;61.19
8160;BME280;27404;52.398;9.646;2022-07-29T00:23:19;101133.97;;;15.49;61.18
8160;BME280;27404;52.398;9.646;2022-07-29T00:25:45;101130.66;;;15.47;62.36
8160;BME280;27404;52.398;9.646;2022-07-29T00:28:10;101126.81;;;15.48;61.42
8160;BME280;27404;52.398;9.646;2022-07-29T00:30:36;101125.38;;;15.45;61.07
8160;BME280;27404;52.398;9.646;2022-07-29T00:33:01;101125.13;;;15.47;61.03
8160;BME280;27404;52.398;9.646;2022-07-29T00:35:27;101119.81;;;15.40;62.71
8160;BME280;27404;52.398;9.646;2022-07-29T00:38:12;101127.50;;;15.38;62.55
8160;BME280;27404;52.398;9.646;2022-07-29T00:40:39;101122.91;;;15.44;61.92
8160;BME280;27404;52.398;9.646;2022-07-29T00:43:05;101117.31;;;15.38;63.16
8160;BME280;27404;52.398;9.646;2022-07-29T00:45:31;101115.81;;;15.31;62.50
8160;BME280;27404;52.398;9.646;2022-07-29T00:47:56;101118.28;;;15.27;63.41
8160;BME280;27404;52.398;9.646;2022-07-29T00:50:22;101105.06;;;15.29;62.69
8160;BME280;27404;52.398;9.646;2022-07-29T00:52:48;101107.31;;;15.32;63.45
8160;BME280;27404;52.398;9.646;2022-07-29T00:55:15;101106.94;;;15.23;64.64
8160;BME280;27404;52.398;9.646;2022-07-29T00:57:42;101109.63;;;15.18;64.75
8160;BME280;27404;52.398;9.646;2022-07-29T01:00:11;101100.53;;;15.18;65.58
8160;BME280;27404;52.398;9.646;2022-07-29T01:02:37;101106.53;;;15.15;64.94
8160;BME280;27404;52.398;9.646;2022-07-29T01:05:04;101102.69;;;15.16;65.05
8160;BME280;27404;52.398;9.646;2022-07-29T01:07:30;101093.69;;;15.20;64.85
8160;BME280;27404;52.398;9.646;2022-07-29T01:09:58;101094.25;;;15.22;64.72
8160;BME280;27404;52.398;9.646;2022-07-29T01:12:28;101091.75;;;15.21;63.80
8160;BME280;27404;52.398;9.646;2022-07-29T01:14:59;101083.25;;;15.22;63.88
8160;BME280;27404;52.398;9.646;2022-07-29T01:23:52;101080.59;;;15.10;64.64
8160;BME280;27404;52.398;9.646;2022-07-29T01:29:24;101074.00;;;15.12;65.03
8160;BME280;27404;52.398;9.646;2022-07-29T01:34:27;101072.59;;;15.09;65.55
8160;BME280;27404;52.398;9.646;2022-07-29T01:37:06;101068.25;;;15.13;64.44
8160;BME280;27404;52.398;9.646;2022-07-29T01:39:36;101068.69;;;15.05;65.88
8160;BME280;27404;52.398;9.646;2022-07-29T01:42:29;101056.47;;;14.95;65.75
8160;BME280;27404;52.398;9.646;2022-07-29T01:50:18;101055.31;;;14.91;65.76
8160;BME280;27404;52.398;9.646;2022-07-29T01:52:58;101053.25;;;14.82;66.98
8160;BME280;27404;52.398;9.646;2022-07-29T01:55:28;101057.66;;;14.83;68.03
8160;BME280;27404;52.398;9.646;2022-07-29T01:57:56;101056.50;;;14.78;67.03
8160;BME280;27404;52.398;9.646;2022-07-29T02:00:23;101059.50;;;14.77;66.92
8160;BME280;27404;52.398;9.646;2022-07-29T02:02:50;101055.16;;;14.81;67.07
8160;BME280;27404;52.398;9.646;2022-07-29T02:05:19;101047.09;;;14.74;68.17
8160;BME280;27404;52.398;9.646;2022-07-29T02:07:46;101043.19;;;14.70;68.37
8160;BME280;27404;52.398;9.646;2022-07-29T02:10:13;101041.53;;;14.69;68.81
8160;BME280;27404;52.398;9.646;2022-07-29T02:12:42;101047.41;;;14.61;69.11
8160;BME280;27404;52.398;9.646;2022-07-29T02:15:09;101042.16;;;14.59;69.00
8160;BME280;27404;52.398;9.646;2022-07-29T02:17:49;101045.69;;;14.55;69.98
8160;BME280;27404;52.398;9.646;2022-07-29T02:20:18;101044.50;;;14.50;69.62
8160;BME280;27404;52.398;9.646;2022-07-29T02:22:44;101044.69;;;14.44;71.08
8160;BME280;27404;52.398;9.646;2022-07-29T02:25:12;101028.69;;;14.41;71.15
8160;BME280;27404;52.398;9.646;2022-07-29T02:27:39;101032.53;;;14.40;72.19
8160;BME280;27404;52.398;9.646;2022-07-29T02:30:07;101036.03;;;14.35;72.13
8160;BME280;27404;52.398;9.646;2022-07-29T02:32:35;101033.53;;;14.33;71.96
8160;BME280;27404;52.398;9.646;2022-07-29T02:35:02;101024.13;;;14.29;70.91
8160;BME280;27404;52.398;9.646;2022-07-29T02:37:29;101032.03;;;14.26;72.12
8160;BME280;27404;52.398;9.646;2022-07-29T02:39:57;101034.38;;;14.17;72.91
8160;BME280;27404;52.398;9.646;2022-07-29T02:42:24;101032.97;;;14.14;72.44
8160;BME280;27404;52.398;9.646;2022-07-29T02:44:52;101027.97;;;14.11;73.51
8160;BME280;27404;52.398;9.646;2022-07-29T02:47:29;101025.22;;;14.11;73.49
8160;BME280;27404;52.398;9.646;2022-07-29T02:50:20;101028.78;;;14.12;73.67
8160;BME280;27404;52.398;9.646;2022-07-29T02:53:14;101028.56;;;14.13;73.37
8160;BME280;27404;52.398;9.646;2022-07-29T02:56:03;101019.88;;;14.21;73.79
8160;BME280;27404;52.398;9.646;2022-07-29T02:58:34;101024.53;;;14.21;73.12
8160;BME280;27404;52.398;9.646;2022-07-29T03:01:11;101019.94;;;14.27;73.06
8160;BME280;27404;52.398;9.646;2022-07-29T03:03:39;101020.53;;;14.29;73.28
8160;BME280;27404;52.398;9.646;2022-07-29T03:06:08;101018.28;;;14.26;74.05
8160;BME280;27404;52.398;9.646;2022-07-29T03:08:34;101019.34;;;14.25;73.65
8160;BME280;27404;52.398;9.646;2022-07-29T03:11:01;101014.53;;;14.32;72.79
8160;BME280;27404;52.398;9.646;2022-07-29T03:13:27;101009.69;;;14.39;73.27
8160;BME280;27404;52.398;9.646;2022-07-29T03:15:55;101012.69;;;14.38;72.38
8160;BME280;27404;52.398;9.646;2022-07-29T03:18:21;101014.00;;;14.35;72.30
8160;BME280;27404;52.398;9.646;2022-07-29T03:20:46;101021.69;;;14.33;73.37
8160;BME280;27404;52.398;9.646;2022-07-29T03:23:18;101012.84;;;14.31;73.59
8160;BME280;27404;52.398;9.646;2022-07-29T03:25:44;101010.69;;;14.33;72.38
8160;BME280;27404;52.398;9.646;2022-07-29T03:28:10;101010.69;;;14.33;72.21
8160;BME280;27404;52.398;9.646;2022-07-29T03:30:35;101014.44;;;14.27;73.19
8160;BME280;27404;52.398;9.646;2022-07-29T03:33:01;101010.69;;;14.33;72.75
8160;BME280;27404;52.398;9.646;2022-07-29T03:35:26;101012.78;;;14.26;72.84
8160;BME280;27404;52.398;9.646;2022-07-29T03:37:52;101007.84;;;14.28;73.26
8160;BME280;27404;52.398;9.646;2022-07-29T03:40:25;101005.69;;;14.30;73.95
8160;BME280;27404;52.398;9.646;2022-07-29T03:42:53;101009.78;;;14.27;74.52
8160;BME280;27404;52.398;9.646;2022-07-29T03:45:21;101005.19;;;14.33;73.42
8160;BME280;27404;52.398;9.646;2022-07-29T03:48:00;101003.53;;;14.32;74.01
8160;BME280;27404;52.398;9.646;2022-07-29T03:50:27;100999.59;;;14.28;74.51
8160;BME280;27404;52.398;9.646;2022-07-29T03:52:54;101020.53;;;14.29;74.61
8160;BME280;27404;52.398;9.646;2022-07-29T03:55:19;101014.97;;;14.24;74.90
8160;BME280;27404;52.398;9.646;2022-07-29T03:57:46;101016.28;;;14.21;75.52
8160;BME280;27404;52.398;9.646;2022-07-29T04:00:13;101012.72;;;14.20;75.19
8160;BME280;27404;52.398;9.646;2022-07-29T04:02:41;101013.31;;;14.23;75.09
8160;BME280;27404;52.398;9.646;2022-07-29T04:05:14;101015.78;;;14.24;75.85
8160;BME280;27404;52.398;9.646;2022-07-29T04:07:43;101017.72;;;14.24;76.58
8160;BME280;27404;52.398;9.646;2022-07-29T04:10:08;101015.69;;;14.36;75.56
8160;BME280;27404;52.398;9.646;2022-07-29T04:12:34;101017.34;;;14.37;74.85
8160;BME280;27404;52.398;9.646;2022-07-29T04:15:00;101014.19;;;14.28;75.57
8160;BME280;27404;52.398;9.646;2022-07-29T04:17:26;101021.88;;;14.26;75.94
8160;BME280;27404;52.398;9.646;2022-07-29T04:19:52;101018.84;;;14.28;76.63
8160;BME280;27404;52.398;9.646;2022-07-29T04:22:17;101022.19;;;14.30;76.86
8160;BME280;27404;52.398;9.646;2022-07-29T04:24:42;101019.69;;;14.28;77.06
8160;BME280;27404;52.398;9.646;2022-07-29T04:27:08;101023.34;;;14.34;76.27
8160;BME280;27404;52.398;9.646;2022-07-29T04:29:33;101026.88;;;14.29;75.33
8160;BME280;27404;52.398;9.646;2022-07-29T04:31:59;101027.19;;;14.33;76.55
8160;BME280;27404;52.398;9.646;2022-07-29T04:34:24;101020.03;;;14.32;75.74
8160;BME280;27404;52.398;9.646;2022-07-29T04:36:49;101017.28;;;14.32;76.07
8160;BME280;27404;52.398;9.646;2022-07-29T04:39:15;101020.53;;;14.29;77.21
8160;BME280;27404;52.398;9.646;2022-07-29T04:41:40;101028.84;;;14.34;76.44
8160;BME280;27404;52.398;9.646;2022-07-29T04:44:06;101030.50;;;14.35;77.15
8160;BME280;27404;52.398;9.646;2022-07-29T04:46:31;101035.59;;;14.43;77.61
8160;BME280;27404;52.398;9.646;2022-07-29T04:48:57;101032.09;;;14.48;77.32
8160;BME280;27404;52.398;9.646;2022-07-29T04:51:23;101028.59;;;14.52;75.98
8160;BME280;27404;52.398;9.646;2022-07-29T04:53:48;101027.19;;;14.50;76.34
8160;BME280;27404;52.398;9.646;2022-07-29T04:56:13;101024.09;;;14.46;76.50
8160;BME280;27404;52.398;9.646;2022-07-29T04:58:39;101021.19;;;14.53;76.84
8160;BME280;27404;52.398;9.646;2022-07-29T05:01:04;101024.25;;;14.57;76.26
8160;BME280;27404;52.398;9.646;2022-07-29T05:03:30;101018.47;;;14.58;76.83
8160;BME280;27404;52.398;9.646;2022-07-29T05:05:55;101013.72;;;14.71;75.48
8160;BME280;27404;52.398;9.646;2022-07-29T05:08:21;101024.06;;;14.80;75.17
8160;BME280;27404;52.398;9.646;2022-07-29T05:10:46;101021.63;;;14.84;73.95
8160;BME280;27404;52.398;9.646;2022-07-29T05:13:12;101021.41;;;14.91;74.94
8160;BME280;27404;52.398;9.646;2022-07-29T05:15:37;101026.81;;;15.03;73.82
8160;BME280;27404;52.398;9.646;2022-07-29T05:18:03;101023.69;;;15.16;73.51
8160;BME280;27404;52.398;9.646;2022-07-29T05:20:29;101019.91;;;15.22;72.55
8160;BME280;27404;52.398;9.646;2022-07-29T05:22:59;101026.34;;;15.33;71.93
8160;BME280;27404;52.398;9.646;2022-07-29T05:25:26;101024.47;;;15.39;71.97
8160;BME280;27404;52.398;9.646;2022-07-29T05:27:53;101019.94;;;15.50;71.31
8160;BME280;27404;52.398;9.646;2022-07-29T05:30:19;101023.38;;;15.67;70.94
8160;BME280;27404;52.398;9.646;2022-07-29T05:32:44;101025.00;;;15.63;70.47
8160;BME280;27404;52.398;9.646;2022-07-29T05:35:11;101026.47;;;15.71;69.98
8160;BME280;27404;52.398;9.646;2022-07-29T05:37:36;101025.72;;;15.81;70.35
8160;BME280;27404;52.398;9.646;2022-07-29T05:40:03;101026.66;;;15.87;69.79
8160;BME280;27404;52.398;9.646;2022-07-29T05:42:28;101023.81;;;15.81;70.12
8160;BME280;27404;52.398;9.646;2022-07-29T05:44:54;101018.69;;;15.90;69.66
8160;BME280;27404;52.398;9.646;2022-07-29T05:47:20;101018.03;;;15.83;69.56
8160;BME280;27404;52.398;9.646;2022-07-29T05:49:45;101013.22;;;15.95;69.61
8160;BME280;27404;52.398;9.646;2022-07-29T05:52:11;101020.53;;;16.12;70.06
8160;BME280;27404;52.398;9.646;2022-07-29T05:54:38;101022.09;;;16.40;68.53
8160;BME280;27404;52.398;9.646;2022-07-29T05:57:04;101027.69;;;16.51;66.22
8160;BME280;27404;52.398;9.646;2022-07-29T05:59:31;101030.28;;;16.68;65.71
8160;BME280;27404;52.398;9.646;2022-07-29T06:01:57;101024.56;;;16.85;64.60
8160;BME280;27404;52.398;9.646;2022-07-29T06:04:22;101018.44;;;16.78;65.65
8160;BME280;27404;52.398;9.646;2022-07-29T06:06:48;101023.19;;;16.82;64.48
8160;BME280;27404;52.398;9.646;2022-07-29T06:09:13;101025.81;;;16.62;65.95
8160;BME280;27404;52.398;9.646;2022-07-29T06:11:40;101026.53;;;16.95;63.65
8160;BME280;27404;52.398;9.646;2022-07-29T06:14:05;101029.88;;;17.86;60.33
8160;BME280;27404;52.398;9.646;2022-07-29T06:16:31;101023.84;;;19.12;51.93
8160;BME280;27404;52.398;9.646;2022-07-29T06:18:56;101022.91;;;19.32;50.87
8160;BME280;27404;52.398;9.646;2022-07-29T06:21:22;101014.56;;;19.37;51.62
8160;BME280;27404;52.398;9.646;2022-07-29T06:23:47;101014.47;;;19.03;51.28
8160;BME280;27404;52.398;9.646;2022-07-29T06:26:12;101015.41;;;18.62;54.49
8160;BME280;27404;52.398;9.646;2022-07-29T06:28:38;101016.28;;;18.42;55.20
8160;BME280;27404;52.398;9.646;2022-07-29T06:31:05;101013.81;;;18.50;55.60
8160;BME280;27404;52.398;9.646;2022-07-29T06:33:30;101019.91;;;18.32;55.48
8160;BME280;27404;52.398;9.646;2022-07-29T06:35:56;101019.84;;;18.63;54.44
8160;BME280;27404;52.398;9.646;2022-07-29T06:38:22;101016.25;;;18.62;54.98
8160;BME280;27404;52.398;9.646;2022-07-29T06:40:47;101021.78;;;18.68;55.21
8160;BME280;27404;52.398;9.646;2022-07-29T06:43:33;101025.16;;;19.30;53.06
8160;BME280;27404;52.398;9.646;2022-07-29T06:46:00;101018.81;;;19.24;52.66
8160;BME280;27404;52.398;9.646;2022-07-29T06:48:27;101019.38;;;19.27;52.45
8160;BME280;27404;52.398;9.646;2022-07-29T06:50:53;101016.94;;;19.60;50.93
8160;BME280;27404;52.398;9.646;2022-07-29T06:53:19;101016.81;;;19.35;52.61
8160;BME280;27404;52.398;9.646;2022-07-29T06:55:44;101018.19;;;19.83;51.17
8160;BME280;27404;52.398;9.646;2022-07-29T06:58:10;101016.78;;;20.20;48.47
8160;BME280;27404;52.398;9.646;2022-07-29T07:00:36;101010.03;;;21.05;45.94
8160;BME280;27404;52.398;9.646;2022-07-29T07:03:02;101012.09;;;21.37;45.29
8160;BME280;27404;52.398;9.646;2022-07-29T07:05:27;101013.72;;;21.63;44.54
8160;BME280;27404;52.398;9.646;2022-07-29T07:07:53;101020.22;;;21.91;42.85
8160;BME280;27404;52.398;9.646;2022-07-29T07:10:18;101018.44;;;21.81;43.82
8160;BME280;27404;52.398;9.646;2022-07-29T07:12:44;101030.22;;;21.92;44.61
8160;BME280;27404;52.398;9.646;2022-07-29T07:15:09;101037.50;;;22.40;43.18
8160;BME280;27404;52.398;9.646;2022-07-29T07:17:35;101031.25;;;23.04;42.47
8160;BME280;27404;52.398;9.646;2022-07-29T07:20:00;101030.25;;;23.28;40.95
8160;BME280;27404;52.398;9.646;2022-07-29T07:22:26;101028.66;;;23.73;39.32
8160;BME280;27404;52.398;9.646;2022-07-29T07:24:51;101029.38;;;24.24;38.99
8160;BME280;27404;52.398;9.646;2022-07-29T07:27:17;101031.81;;;24.48;38.78
8160;BME280;27404;52.398;9.646;2022-07-29T07:29:42;101032.44;;;24.14;38.89
8160;BME280;27404;52.398;9.646;2022-07-29T07:32:07;101025.06;;;23.72;38.52
8160;BME280;27404;52.398;9.646;2022-07-29T07:34:33;101031.75;;;23.20;39.86
8160;BME280;27404;52.398;9.646;2022-07-29T07:36:59;101029.41;;;23.14;40.04
8160;BME280;27404;52.398;9.646;2022-07-29T07:39:24;101039.09;;;22.60;41.00
8160;BME280;27404;52.398;9.646;2022-07-29T07:41:51;101028.50;;;22.29;41.82
8160;BME280;27404;52.398;9.646;2022-07-29T07:44:17;101030.91;;;22.03;42.98
8160;BME280;27404;52.398;9.646;2022-07-29T07:46:42;101034.13;;;21.91;43.04
8160;BME280;27404;52.398;9.646;2022-07-29T07:49:10;101031.25;;;21.63;43.69
8160;BME280;27404;52.398;9.646;2022-07-29T07:51:35;101023.97;;;21.24;44.45
8160;BME280;27404;52.398;9.646;2022-07-29T07:54:01;101020.06;;;20.52;45.65
8160;BME280;27404;52.398;9.646;2022-07-29T07:56:26;101025.09;;;20.20;46.95
8160;BME280;27404;52.398;9.646;2022-07-29T07:58:52;101017.78;;;19.60;50.07
8160;BME280;27404;52.398;9.646;2022-07-29T08:01:17;101006.69;;;19.60;51.01
8160;BME280;27404;52.398;9.646;2022-07-29T08:03:44;101014.66;;;19.67;50.62
8160;BME280;27404;52.398;9.646;2022-07-29T08:06:10;101012.41;;;19.74;52.21
8160;BME280;27404;52.398;9.646;2022-07-29T08:08:35;101019.84;;;19.84;50.83
8160;BME280;27404;52.398;9.646;2022-07-29T08:11:01;101010.66;;;19.89;50.29
8160;BME280;27404;52.398;9.646;2022-07-29T08:13:28;101015.06;;;19.95;49.69
8160;BME280;27404;52.398;9.646;2022-07-29T08:15:56;101013.94;;;19.96;49.81
8160;BME280;27404;52.398;9.646;2022-07-29T08:18:29;101016.75;;;19.91;50.38
8160;BME280;27404;52.398;9.646;2022-07-29T08:20:55;101019.84;;;19.84;50.46
8160;BME280;27404;52.398;9.646;2022-07-29T08:23:21;101011.25;;;19.80;50.07
8160;BME280;27404;52.398;9.646;2022-07-29T08:25:48;101022.25;;;19.96;50.15
8160;BME280;27404;52.398;9.646;2022-07-29T08:28:14;101023.03;;;20.02;49.78
8160;BME280;27404;52.398;9.646;2022-07-29T08:30:39;101017.16;;;20.08;50.31
8160;BME280;27404;52.398;9.646;2022-07-29T08:33:05;101014.97;;;20.05;51.31
8160;BME280;27404;52.398;9.646;2022-07-29T08:35:31;101009.28;;;19.86;51.29
8160;BME280;27404;52.398;9.646;2022-07-29T08:37:56;101015.09;;;19.85;51.66
8160;BME280;27404;52.398;9.646;2022-07-29T08:40:22;101014.88;;;19.81;52.11
8160;BME280;27404;52.398;9.646;2022-07-29T08:42:49;101016.44;;;19.92;51.60
8160;BME280;27404;52.398;9.646;2022-07-29T08:45:15;101011.31;;;19.70;52.37
8160;BME280;27404;52.398;9.646;2022-07-29T08:47:41;101017.88;;;19.85;51.72
8160;BME280;27404;52.398;9.646;2022-07-29T08:50:08;101025.84;;;19.96;50.75
8160;BME280;27404;52.398;9.646;2022-07-29T08:52:36;101018.06;;;19.98;48.95
8160;BME280;27404;52.398;9.646;2022-07-29T08:55:03;101021.41;;;19.95;49.24
8160;BME280;27404;52.398;9.646;2022-07-29T08:57:29;101015.00;;;20.00;50.33
8160;BME280;27404;52.398;9.646;2022-07-29T08:59:57;101015.88;;;20.25;51.23
8160;BME280;27404;52.398;9.646;2022-07-29T09:02:28;101010.72;;;20.42;50.26
8160;BME280;27404;52.398;9.646;2022-07-29T09:04:54;101005.53;;;20.36;49.49
8160;BME280;27404;52.398;9.646;2022-07-29T09:07:19;101009.69;;;20.33;51.48
8160;BME280;27404;52.398;9.646;2022-07-29T09:09:45;101010.75;;;20.67;49.37
8160;BME280;27404;52.398;9.646;2022-07-29T09:12:11;100999.78;;;21.05;48.43
8160;BME280;27404;52.398;9.646;2022-07-29T09:14:38;101008.19;;;21.19;47.42
8160;BME280;27404;52.398;9.646;2022-07-29T09:17:04;101008.97;;;21.44;46.94
8160;BME280;27404;52.398;9.646;2022-07-29T09:19:32;101011.44;;;21.45;46.92
8160;BME280;27404;52.398;9.646;2022-07-29T09:22:01;101006.94;;;21.69;45.97
8160;BME280;27404;52.398;9.646;2022-07-29T09:24:39;101007.75;;;21.88;44.85
8160;BME280;27404;52.398;9.646;2022-07-29T09:27:20;101000.00;;;21.85;45.14
8160;BME280;27404;52.398;9.646;2022-07-29T09:29:46;101001.91;;;21.52;45.08
8160;BME280;27404;52.398;9.646;2022-07-29T09:32:12;101003.75;;;21.95;45.27
8160;BME280;27404;52.398;9.646;2022-07-29T09:34:38;100994.72;;;22.03;44.46
8160;BME280;27404;52.398;9.646;2022-07-29T09:37:04;101006.13;;;22.34;44.62
8160;BME280;27404;52.398;9.646;2022-07-29T09:41:57;101003.19;;;22.59;42.23
8160;BME280;27404;52.398;9.646;2022-07-29T09:44:24;101009.69;;;23.10;42.44
8160;BME280;27404;52.398;9.646;2022-07-29T09:46:59;101007.78;;;23.19;41.66
8160;BME280;27404;52.398;9.646;2022-07-29T09:49:31;101009.44;;;23.20;41.82
8160;BME280;27404;52.398;9.646;2022-07-29T09:52:07;101003.47;;;23.27;41.06
8160;BME280;27404;52.398;9.646;2022-07-29T09:54:34;101004.22;;;23.05;42.19
8160;BME280;27404;52.398;9.646;2022-07-29T09:57:04;101002.84;;;23.02;41.92
8160;BME280;27404;52.398;9.646;2022-07-29T09:59:30;101004.00;;;23.29;41.09
8160;BME280;27404;52.398;9.646;2022-07-29T10:01:56;101002.53;;;23.32;41.30
8160;BME280;27404;52.398;9.646;2022-07-29T10:04:22;101012.25;;;23.34;41.08
8160;BME280;27404;52.398;9.646;2022-07-29T10:06:58;101010.38;;;23.66;40.43
8160;BME280;27404;52.398;9.646;2022-07-29T10:09:24;101007.91;;;23.65;40.05
8160;BME280;27404;52.398;9.646;2022-07-29T10:14:33;101009.19;;;23.59;40.74
8160;BME280;27404;52.398;9.646;2022-07-29T10:17:00;101008.03;;;23.60;38.44
8160;BME280;27404;52.398;9.646;2022-07-29T10:19:28;101005.31;;;23.69;38.11
8160;BME280;27404;52.398;9.646;2022-07-29T10:21:57;100994.09;;;23.60;39.75
8160;BME280;27404;52.398;9.646;2022-07-29T10:24:27;100995.34;;;23.54;40.19
8160;BME280;27404;52.398;9.646;2022-07-29T10:26:55;100994.44;;;23.44;39.66
8160;BME280;27404;52.398;9.646;2022-07-29T10:29:20;100993.88;;;23.33;40.64
8160;BME280;27404;52.398;9.646;2022-07-29T10:32:16;100995.75;;;23.10;41.20
8160;BME280;27404;52.398;9.646;2022-07-29T10:43:54;100988.50;;;22.95;41.36
8160;BME280;27404;52.398;9.646;2022-07-29T10:46:21;100987.81;;;22.75;42.06
8160;BME280;27404;52.398;9.646;2022-07-29T10:51:59;100978.94;;;22.45;42.92
8160;BME280;27404;52.398;9.646;2022-07-29T10:54:40;100976.16;;;22.45;44.22
8160;BME280;27404;52.398;9.646;2022-07-29T10:57:19;100976.81;;;22.37;43.36
8160;BME280;27404;52.398;9.646;2022-07-29T11:05:15;100980.28;;;22.76;43.66
8160;BME280;27404;52.398;9.646;2022-07-29T11:10:45;100978.28;;;23.04;42.66
8160;BME280;27404;52.398;9.646;2022-07-29T11:13:10;100980.78;;;22.78;42.65
8160;BME280;27404;52.398;9.646;2022-07-29T11:15:56;100979.97;;;22.77;43.06
8160;BME280;27404;52.398;9.646;2022-07-29T11:18:22;100985.56;;;22.77;43.53
8160;BME280;27404;52.398;9.646;2022-07-29T11:20:50;100981.41;;;22.89;43.50
8160;BME280;27404;52.398;9.646;2022-07-29T11:29:12;100983.03;;;22.90;43.21
8160;BME280;27404;52.398;9.646;2022-07-29T11:31:44;100982.94;;;23.23;42.94
8160;BME280;27404;52.398;9.646;2022-07-29T11:34:27;100980.56;;;23.53;42.13
8160;BME280;27404;52.398;9.646;2022-07-29T11:39:44;100972.41;;;23.79;42.03
8160;BME280;27404;52.398;9.646;2022-07-29T11:45:05;100971.00;;;24.14;40.85
8160;BME280;27404;52.398;9.646;2022-07-29T11:47:35;100972.41;;;24.34;40.41
8160;BME280;27404;52.398;9.646;2022-07-29T11:50:07;100971.47;;;24.88;39.85
8160;BME280;27404;52.398;9.646;2022-07-29T11:52:34;100971.47;;;24.88;40.25
8160;BME280;27404;52.398;9.646;2022-07-29T11:55:05;100969.66;;;24.92;39.31
8160;BME280;27404;52.398;9.646;2022-07-29T11:57:31;100963.81;;;25.11;39.19
8160;BME280;27404;52.398;9.646;2022-07-29T11:59:59;100957.56;;;25.40;38.92
8160;BME280;27404;52.398;9.646;2022-07-29T12:02:38;100962.66;;;25.21;38.05
8160;BME280;27404;52.398;9.646;2022-07-29T12:05:04;100964.59;;;25.03;38.05
8160;BME280;27404;52.398;9.646;2022-07-29T12:07:31;100957.19;;;24.98;38.86
8160;BME280;27404;52.398;9.646;2022-07-29T12:09:57;100952.34;;;24.32;40.00
8160;BME280;27404;52.398;9.646;2022-07-29T12:12:23;100959.47;;;24.87;39.95
8160;BME280;27404;52.398;9.646;2022-07-29T12:14:49;100951.78;;;25.37;38.84
8160;BME280;27404;52.398;9.646;2022-07-29T12:17:30;100945.06;;;25.73;37.94
8160;BME280;27404;52.398;9.646;2022-07-29T12:19:57;100947.78;;;25.91;37.22
8160;BME280;27404;52.398;9.646;2022-07-29T12:22:27;100950.41;;;25.96;37.41
8160;BME280;27404;52.398;9.646;2022-07-29T12:24:53;100943.91;;;25.74;37.55
8160;BME280;27404;52.398;9.646;2022-07-29T12:27:19;100950.31;;;25.75;38.44
8160;BME280;27404;52.398;9.646;2022-07-29T12:29:54;100940.59;;;25.72;37.64
8160;BME280;27404;52.398;9.646;2022-07-29T12:32:20;100943.59;;;25.49;38.05
8160;BME280;27404;52.398;9.646;2022-07-29T12:34:45;100931.38;;;25.19;39.16
8160;BME280;27404;52.398;9.646;2022-07-29T12:37:11;100936.91;;;24.75;39.16
8160;BME280;27404;52.398;9.646;2022-07-29T12:39:36;100931.41;;;24.61;39.14
8160;BME280;27404;52.398;9.646;2022-07-29T12:42:11;100933.34;;;24.43;39.70
8160;BME280;27404;52.398;9.646;2022-07-29T12:47:11;100934.56;;;24.68;39.77
8160;BME280;27404;52.398;9.646;2022-07-29T12:49:37;100934.66;;;24.94;39.03
8160;BME280;27404;52.398;9.646;2022-07-29T12:52:23;100927.94;;;25.39;39.01
8160;BME280;27404;52.398;9.646;2022-07-29T12:54:48;100924.47;;;25.42;37.65
8160;BME280;27404;52.398;9.646;2022-07-29T12:57:14;100926.63;;;25.54;37.50
8160;BME280;27404;52.398;9.646;2022-07-29T12:59:39;100926.78;;;25.58;38.43
8160;BME280;27404;52.398;9.646;2022-07-29T13:02:05;100925.16;;;25.48;38.28
8160;BME280;27404;52.398;9.646;2022-07-29T13:04:33;100925.44;;;25.38;38.53
8160;BME280;27404;52.398;9.646;2022-07-29T13:07:02;100920.34;;;25.66;37.43
8160;BME280;27404;52.398;9.646;2022-07-29T13:09:42;100916.63;;;26.01;37.67
8160;BME280;27404;52.398;9.646;2022-07-29T13:12:10;100923.56;;;25.95;36.24
8160;BME280;27404;52.398;9.646;2022-07-29T13:14:42;100916.03;;;25.78;37.34
8160;BME280;27404;52.398;9.646;2022-07-29T13:17:09;100917.53;;;25.75;38.07
8160;BME280;27404;52.398;9.646;2022-07-29T13:19:43;100910.44;;;25.78;37.99
8160;BME280;27404;52.398;9.646;2022-07-29T13:22:10;100913.69;;;25.97;38.19
8160;BME280;27404;52.398;9.646;2022-07-29T13:24:59;100916.81;;;26.05;37.32
8160;BME280;27404;52.398;9.646;2022-07-29T13:27:29;100906.28;;;25.93;37.49
8160;BME280;27404;52.398;9.646;2022-07-29T13:29:58;100901.03;;;25.91;36.46
8160;BME280;27404;52.398;9.646;2022-07-29T13:32:26;100900.94;;;25.52;37.22
8160;BME280;27404;52.398;9.646;2022-07-29T13:34:52;100893.50;;;25.39;37.59
8160;BME280;27404;52.398;9.646;2022-07-29T13:37:19;100889.72;;;25.35;38.04
8160;BME280;27404;52.398;9.646;2022-07-29T13:39:45;100894.34;;;25.48;38.21
8160;BME280;27404;52.398;9.646;2022-07-29T13:42:11;100888.06;;;25.60;37.48
8160;BME280;27404;52.398;9.646;2022-07-29T13:44:38;100888.75;;;25.48;37.42
8160;BME280;27404;52.398;9.646;2022-07-29T13:47:05;100887.25;;;25.60;37.27
8160;BME280;27404;52.398;9.646;2022-07-29T13:49:30;100886.25;;;25.73;37.17
8160;BME280;27404;52.398;9.646;2022-07-29T13:51:56;100887.50;;;25.84;36.90
8160;BME280;27404;52.398;9.646;2022-07-29T13:54:22;100886.63;;;26.10;36.35
8160;BME280;27404;52.398;9.646;2022-07-29T13:56:47;100888.41;;;26.24;36.01
8160;BME280;27404;52.398;9.646;2022-07-29T13:59:13;100879.31;;;26.27;36.16
8160;BME280;27404;52.398;9.646;2022-07-29T14:01:38;100872.59;;;26.49;35.49